sensor_id;sensor_type;location;lat;lon;timestamp;P1;durP1;ratioP1;P2;durP2;ratioP2
26908;SDS011;14477;51.038;4.588;2024-02-15T00:00:04;3.90;;;2.30;;
26908;SDS011;14477;51.038;4.588;2024-02-15T00:02:31;5.50;;;2.60;;
26908;SDS011;14477;51.038;4.588;2024-02-15T00:04:57;3.77;;;1.90;;
26908;SDS011;14477;51.038;4.588;2024-02-15T00:07:23;4.37;;;2.00;;
26908;SDS011;14477;51.038;4.588;2024-02-15T00:09:49;5.38;;;2.10;;
26908;SDS011;14477;51.038;4.588;2024-02-15T00:12:15;2.67;;;1.70;;
26908;SDS011;14477;51.038;4.588;2024-02-15T00:14:40;4.33;;;2.10;;
26908;SDS011;14477;51.038;4.588;2024-02-15T00:17:07;4.53;;;2.30;;
26908;SDS011;14477;51.038;4.588;2024-02-15T00:19:33;4.70;;;2.08;;
26908;SDS011;14477;51.038;4.588;2024-02-15T00:21:59;3.40;;;1.70;;
26908;SDS011;14477;51.038;4.588;2024-02-15T00:24:25;2.80;;;1.70;;
26908;SDS011;14477;51.038;4.588;2024-02-15T00:26:50;3.50;;;1.80;;
26908;SDS011;14477;51.038;4.588;2024-02-15T00:29:16;3.65;;;1.70;;
26908;SDS011;14477;51.038;4.588;2024-02-15T00:31:43;5.43;;;1.80;;
26908;SDS011;14477;51.038;4.588;2024-02-15T00:34:08;2.87;;;1.90;;
26908;SDS011;14477;51.038;4.588;2024-02-15T00:36:35;4.55;;;2.03;;
26908;SDS011;14477;51.038;4.588;2024-02-15T00:39:00;3.33;;;1.60;;
26908;SDS011;14477;51.038;4.588;2024-02-15T00:41:26;2.70;;;1.52;;
26908;SDS011;14477;51.038;4.588;2024-02-15T00:43:53;4.00;;;1.90;;
26908;SDS011;14477;51.038;4.588;2024-02-15T00:46:18;3.27;;;1.50;;
26908;SDS011;14477;51.038;4.588;2024-02-15T00:48:44;3.15;;;1.55;;
26908;SDS011;14477;51.038;4.588;2024-02-15T00:51:10;2.97;;;1.97;;
26908;SDS011;14477;51.038;4.588;2024-02-15T00:53:36;3.15;;;1.40;;
26908;SDS011;14477;51.038;4.588;2024-02-15T00:56:01;2.83;;;1.70;;
26908;SDS011;14477;51.038;4.588;2024-02-15T00:58:27;3.27;;;1.73;;
26908;SDS011;14477;51.038;4.588;2024-02-15T01:00:53;4.88;;;1.80;;
26908;SDS011;14477;51.038;4.588;2024-02-15T01:03:19;3.37;;;1.47;;
26908;SDS011;14477;51.038;4.588;2024-02-15T01:05:45;3.03;;;1.38;;
26908;SDS011;14477;51.038;4.588;2024-02-15T01:08:11;4.55;;;1.27;;
26908;SDS011;14477;51.038;4.588;2024-02-15T01:10:37;4.20;;;1.60;;
26908;SDS011;14477;51.038;4.588;2024-02-15T01:13:03;2.65;;;1.48;;
26908;SDS011;14477;51.038;4.588;2024-02-15T01:15:29;2.95;;;1.33;;
26908;SDS011;14477;51.038;4.588;2024-02-15T01:17:55;2.17;;;1.30;;
26908;SDS011;14477;51.038;4.588;2024-02-15T01:20:20;3.33;;;1.40;;
26908;SDS011;14477;51.038;4.588;2024-02-15T01:22:46;5.80;;;2.08;;
26908;SDS011;14477;51.038;4.588;2024-02-15T01:25:12;2.90;;;1.27;;
26908;SDS011;14477;51.038;4.588;2024-02-15T01:27:40;3.55;;;1.30;;
26908;SDS011;14477;51.038;4.588;2024-02-15T01:30:07;2.72;;;1.27;;
26908;SDS011;14477;51.038;4.588;2024-02-15T01:32:33;3.70;;;1.42;;
26908;SDS011;14477;51.038;4.588;2024-02-15T01:34:59;3.58;;;1.42;;
26908;SDS011;14477;51.038;4.588;2024-02-15T01:37:25;3.93;;;1.20;;
26908;SDS011;14477;51.038;4.588;2024-02-15T01:39:51;3.15;;;1.20;;
26908;SDS011;14477;51.038;4.588;2024-02-15T01:42:17;2.22;;;1.05;;
26908;SDS011;14477;51.038;4.588;2024-02-15T01:44:44;2.77;;;1.17;;
26908;SDS011;14477;51.038;4.588;2024-02-15T01:47:10;3.47;;;1.23;;
26908;SDS011;14477;51.038;4.588;2024-02-15T01:49:36;5.10;;;1.20;;
26908;SDS011;14477;51.038;4.588;2024-02-15T01:52:02;3.43;;;1.10;;
26908;SDS011;14477;51.038;4.588;2024-02-15T01:54:30;1.67;;;1.10;;
26908;SDS011;14477;51.038;4.588;2024-02-15T01:56:57;2.65;;;1.10;;
26908;SDS011;14477;51.038;4.588;2024-02-15T01:59:23;2.17;;;1.30;;
26908;SDS011;14477;51.038;4.588;2024-02-15T02:01:50;2.20;;;1.00;;
26908;SDS011;14477;51.038;4.588;2024-02-15T02:04:16;1.23;;;0.90;;
26908;SDS011;14477;51.038;4.588;2024-02-15T02:06:42;2.03;;;1.00;;
26908;SDS011;14477;51.038;4.588;2024-02-15T02:09:10;4.10;;;1.15;;
26908;SDS011;14477;51.038;4.588;2024-02-15T02:11:44;2.77;;;1.10;;
26908;SDS011;14477;51.038;4.588;2024-02-15T02:14:11;2.60;;;1.02;;
26908;SDS011;14477;51.038;4.588;2024-02-15T02:16:37;2.78;;;1.00;;
26908;SDS011;14477;51.038;4.588;2024-02-15T02:19:04;2.25;;;1.10;;
26908;SDS011;14477;51.038;4.588;2024-02-15T02:21:34;2.07;;;1.00;;
26908;SDS011;14477;51.038;4.588;2024-02-15T02:24:02;2.85;;;1.08;;
26908;SDS011;14477;51.038;4.588;2024-02-15T02:26:33;2.60;;;1.00;;
26908;SDS011;14477;51.038;4.588;2024-02-15T02:29:02;2.90;;;0.90;;
26908;SDS011;14477;51.038;4.588;2024-02-15T02:31:32;1.67;;;1.10;;
26908;SDS011;14477;51.038;4.588;2024-02-15T02:33:59;2.97;;;1.10;;
26908;SDS011;14477;51.038;4.588;2024-02-15T02:36:25;1.63;;;1.10;;
26908;SDS011;14477;51.038;4.588;2024-02-15T02:38:52;4.05;;;1.20;;
26908;SDS011;14477;51.038;4.588;2024-02-15T02:41:18;2.13;;;1.00;;
26908;SDS011;14477;51.038;4.588;2024-02-15T02:43:44;2.37;;;1.03;;
26908;SDS011;14477;51.038;4.588;2024-02-15T02:46:10;3.55;;;1.02;;
26908;SDS011;14477;51.038;4.588;2024-02-15T02:48:37;1.60;;;1.00;;
26908;SDS011;14477;51.038;4.588;2024-02-15T02:51:03;1.85;;;0.95;;
26908;SDS011;14477;51.038;4.588;2024-02-15T02:53:29;1.98;;;1.00;;
26908;SDS011;14477;51.038;4.588;2024-02-15T02:55:58;4.10;;;1.10;;
26908;SDS011;14477;51.038;4.588;2024-02-15T02:58:24;2.78;;;1.00;;
26908;SDS011;14477;51.038;4.588;2024-02-15T03:00:50;2.37;;;0.97;;
26908;SDS011;14477;51.038;4.588;2024-02-15T03:03:17;1.37;;;0.87;;
26908;SDS011;14477;51.038;4.588;2024-02-15T03:05:49;1.95;;;0.90;;
26908;SDS011;14477;51.038;4.588;2024-02-15T03:08:15;1.85;;;1.00;;
26908;SDS011;14477;51.038;4.588;2024-02-15T03:10:42;3.77;;;1.07;;
26908;SDS011;14477;51.038;4.588;2024-02-15T03:13:08;1.98;;;0.90;;
26908;SDS011;14477;51.038;4.588;2024-02-15T03:15:34;2.85;;;1.10;;
26908;SDS011;14477;51.038;4.588;2024-02-15T03:18:01;2.17;;;1.00;;
26908;SDS011;14477;51.038;4.588;2024-02-15T03:20:32;1.83;;;0.98;;
26908;SDS011;14477;51.038;4.588;2024-02-15T03:22:59;2.13;;;1.00;;
26908;SDS011;14477;51.038;4.588;2024-02-15T03:25:26;1.50;;;0.90;;
26908;SDS011;14477;51.038;4.588;2024-02-15T03:27:57;3.03;;;1.40;;
26908;SDS011;14477;51.038;4.588;2024-02-15T03:30:27;2.07;;;1.00;;
26908;SDS011;14477;51.038;4.588;2024-02-15T03:32:56;1.85;;;1.10;;
26908;SDS011;14477;51.038;4.588;2024-02-15T03:35:24;2.83;;;1.10;;
26908;SDS011;14477;51.038;4.588;2024-02-15T03:37:51;1.70;;;1.08;;
26908;SDS011;14477;51.038;4.588;2024-02-15T03:40:18;2.85;;;1.02;;
26908;SDS011;14477;51.038;4.588;2024-02-15T03:42:44;2.00;;;0.90;;
26908;SDS011;14477;51.038;4.588;2024-02-15T03:45:11;1.50;;;1.08;;
26908;SDS011;14477;51.038;4.588;2024-02-15T03:47:37;2.55;;;1.00;;
26908;SDS011;14477;51.038;4.588;2024-02-15T03:50:03;2.27;;;0.90;;
26908;SDS011;14477;51.038;4.588;2024-02-15T03:52:36;2.28;;;0.80;;
26908;SDS011;14477;51.038;4.588;2024-02-15T03:55:02;2.33;;;1.00;;
26908;SDS011;14477;51.038;4.588;2024-02-15T03:57:29;2.25;;;0.90;;
26908;SDS011;14477;51.038;4.588;2024-02-15T03:59:55;2.10;;;1.00;;
26908;SDS011;14477;51.038;4.588;2024-02-15T04:02:24;2.43;;;1.20;;
26908;SDS011;14477;51.038;4.588;2024-02-15T04:04:55;3.13;;;1.00;;
26908;SDS011;14477;51.038;4.588;2024-02-15T04:07:22;1.73;;;1.10;;
26908;SDS011;14477;51.038;4.588;2024-02-15T04:09:51;2.45;;;1.00;;
26908;SDS011;14477;51.038;4.588;2024-02-15T04:12:17;2.13;;;1.10;;
26908;SDS011;14477;51.038;4.588;2024-02-15T04:14:43;2.83;;;1.27;;
26908;SDS011;14477;51.038;4.588;2024-02-15T04:17:13;2.40;;;1.20;;
26908;SDS011;14477;51.038;4.588;2024-02-15T04:19:42;2.72;;;1.13;;
26908;SDS011;14477;51.038;4.588;2024-02-15T04:22:09;2.37;;;0.90;;
26908;SDS011;14477;51.038;4.588;2024-02-15T04:24:35;2.47;;;1.00;;
26908;SDS011;14477;51.038;4.588;2024-02-15T04:27:07;2.05;;;1.00;;
26908;SDS011;14477;51.038;4.588;2024-02-15T04:29:38;2.00;;;0.90;;
26908;SDS011;14477;51.038;4.588;2024-02-15T04:32:09;1.73;;;0.93;;
26908;SDS011;14477;51.038;4.588;2024-02-15T04:34:41;2.83;;;1.03;;
26908;SDS011;14477;51.038;4.588;2024-02-15T04:37:07;3.22;;;1.15;;
26908;SDS011;14477;51.038;4.588;2024-02-15T04:39:36;3.58;;;0.93;;
26908;SDS011;14477;51.038;4.588;2024-02-15T04:42:02;1.73;;;1.00;;
26908;SDS011;14477;51.038;4.588;2024-02-15T04:44:31;3.35;;;0.95;;
26908;SDS011;14477;51.038;4.588;2024-02-15T04:47:00;3.33;;;1.47;;
26908;SDS011;14477;51.038;4.588;2024-02-15T04:49:29;1.45;;;1.00;;
26908;SDS011;14477;51.038;4.588;2024-02-15T04:51:55;1.42;;;0.88;;
26908;SDS011;14477;51.038;4.588;2024-02-15T04:54:22;3.07;;;1.10;;
26908;SDS011;14477;51.038;4.588;2024-02-15T04:56:48;2.58;;;1.17;;
26908;SDS011;14477;51.038;4.588;2024-02-15T04:59:19;1.85;;;1.08;;
26908;SDS011;14477;51.038;4.588;2024-02-15T05:01:46;4.50;;;1.40;;
26908;SDS011;14477;51.038;4.588;2024-02-15T05:04:14;1.83;;;1.10;;
26908;SDS011;14477;51.038;4.588;2024-02-15T05:06:40;1.50;;;0.80;;
26908;SDS011;14477;51.038;4.588;2024-02-15T05:09:06;2.00;;;0.93;;
26908;SDS011;14477;51.038;4.588;2024-02-15T05:11:36;2.25;;;1.10;;
26908;SDS011;14477;51.038;4.588;2024-02-15T05:14:03;1.57;;;1.00;;
26908;SDS011;14477;51.038;4.588;2024-02-15T05:16:32;2.72;;;0.93;;
26908;SDS011;14477;51.038;4.588;2024-02-15T05:18:58;1.83;;;0.80;;
26908;SDS011;14477;51.038;4.588;2024-02-15T05:21:24;1.75;;;0.77;;
26908;SDS011;14477;51.038;4.588;2024-02-15T05:23:50;2.17;;;0.90;;
26908;SDS011;14477;51.038;4.588;2024-02-15T05:26:17;1.83;;;0.85;;
26908;SDS011;14477;51.038;4.588;2024-02-15T05:28:48;1.67;;;0.90;;
26908;SDS011;14477;51.038;4.588;2024-02-15T05:31:17;1.40;;;0.80;;
26908;SDS011;14477;51.038;4.588;2024-02-15T05:33:45;1.13;;;0.80;;
26908;SDS011;14477;51.038;4.588;2024-02-15T05:36:19;1.35;;;0.77;;
26908;SDS011;14477;51.038;4.588;2024-02-15T05:38:49;1.98;;;0.98;;
26908;SDS011;14477;51.038;4.588;2024-02-15T05:41:16;1.50;;;0.88;;
26908;SDS011;14477;51.038;4.588;2024-02-15T05:43:42;1.80;;;0.80;;
26908;SDS011;14477;51.038;4.588;2024-02-15T05:46:08;1.33;;;0.90;;
26908;SDS011;14477;51.038;4.588;2024-02-15T05:48:38;2.50;;;0.80;;
26908;SDS011;14477;51.038;4.588;2024-02-15T05:51:04;2.85;;;0.80;;
26908;SDS011;14477;51.038;4.588;2024-02-15T05:53:32;1.20;;;0.70;;
26908;SDS011;14477;51.038;4.588;2024-02-15T05:56:01;1.50;;;0.90;;
26908;SDS011;14477;51.038;4.588;2024-02-15T05:58:29;1.50;;;0.87;;
26908;SDS011;14477;51.038;4.588;2024-02-15T06:00:56;1.55;;;1.10;;
26908;SDS011;14477;51.038;4.588;2024-02-15T06:03:26;2.53;;;0.93;;
26908;SDS011;14477;51.038;4.588;2024-02-15T06:05:57;2.05;;;0.90;;
26908;SDS011;14477;51.038;4.588;2024-02-15T06:08:26;2.08;;;1.00;;
26908;SDS011;14477;51.038;4.588;2024-02-15T06:10:55;2.60;;;1.00;;
26908;SDS011;14477;51.038;4.588;2024-02-15T06:13:21;1.27;;;0.77;;
26908;SDS011;14477;51.038;4.588;2024-02-15T06:15:48;1.33;;;0.63;;
26908;SDS011;14477;51.038;4.588;2024-02-15T06:18:21;1.13;;;0.77;;
26908;SDS011;14477;51.038;4.588;2024-02-15T06:20:49;1.13;;;0.77;;
26908;SDS011;14477;51.038;4.588;2024-02-15T06:23:18;2.05;;;1.10;;
26908;SDS011;14477;51.038;4.588;2024-02-15T06:25:45;0.88;;;0.65;;
26908;SDS011;14477;51.038;4.588;2024-02-15T06:28:14;1.63;;;1.00;;
26908;SDS011;14477;51.038;4.588;2024-02-15T06:30:59;1.50;;;0.80;;
26908;SDS011;14477;51.038;4.588;2024-02-15T06:33:43;2.50;;;0.80;;
26908;SDS011;14477;51.038;4.588;2024-02-15T06:36:28;2.08;;;0.80;;
26908;SDS011;14477;51.038;4.588;2024-02-15T06:39:12;1.73;;;0.80;;
26908;SDS011;14477;51.038;4.588;2024-02-15T06:41:56;2.85;;;0.80;;
26908;SDS011;14477;51.038;4.588;2024-02-15T06:44:22;1.70;;;0.87;;
26908;SDS011;14477;51.038;4.588;2024-02-15T06:46:49;1.25;;;0.80;;
26908;SDS011;14477;51.038;4.588;2024-02-15T06:49:16;1.55;;;0.85;;
26908;SDS011;14477;51.038;4.588;2024-02-15T06:51:42;1.33;;;0.70;;
26908;SDS011;14477;51.038;4.588;2024-02-15T06:54:08;1.92;;;0.80;;
26908;SDS011;14477;51.038;4.588;2024-02-15T06:56:38;2.72;;;0.90;;
26908;SDS011;14477;51.038;4.588;2024-02-15T06:59:04;1.25;;;0.70;;
26908;SDS011;14477;51.038;4.588;2024-02-15T07:01:30;1.38;;;0.70;;
26908;SDS011;14477;51.038;4.588;2024-02-15T07:03:59;1.20;;;0.70;;
26908;SDS011;14477;51.038;4.588;2024-02-15T07:06:25;1.92;;;0.88;;
26908;SDS011;14477;51.038;4.588;2024-02-15T07:08:52;1.02;;;0.73;;
26908;SDS011;14477;51.038;4.588;2024-02-15T07:11:21;1.20;;;0.70;;
26908;SDS011;14477;51.038;4.588;2024-02-15T07:13:47;1.48;;;0.77;;
26908;SDS011;14477;51.038;4.588;2024-02-15T07:16:13;2.87;;;0.83;;
26908;SDS011;14477;51.038;4.588;2024-02-15T07:18:40;1.23;;;0.80;;
26908;SDS011;14477;51.038;4.588;2024-02-15T07:21:06;1.30;;;0.70;;
26908;SDS011;14477;51.038;4.588;2024-02-15T07:23:38;1.67;;;0.88;;
26908;SDS011;14477;51.038;4.588;2024-02-15T07:26:06;2.63;;;0.93;;
26908;SDS011;14477;51.038;4.588;2024-02-15T07:28:33;1.27;;;0.80;;
26908;SDS011;14477;51.038;4.588;2024-02-15T07:30:59;0.90;;;0.70;;
26908;SDS011;14477;51.038;4.588;2024-02-15T07:33:27;1.23;;;0.80;;
26908;SDS011;14477;51.038;4.588;2024-02-15T07:35:54;1.58;;;0.90;;
26908;SDS011;14477;51.038;4.588;2024-02-15T07:38:21;1.20;;;0.80;;
26908;SDS011;14477;51.038;4.588;2024-02-15T07:40:48;1.55;;;0.80;;
26908;SDS011;14477;51.038;4.588;2024-02-15T07:43:14;1.08;;;0.80;;
26908;SDS011;14477;51.038;4.588;2024-02-15T07:45:41;1.95;;;0.77;;
26908;SDS011;14477;51.038;4.588;2024-02-15T07:48:07;1.08;;;0.70;;
26908;SDS011;14477;51.038;4.588;2024-02-15T07:50:33;2.00;;;1.00;;
26908;SDS011;14477;51.038;4.588;2024-02-15T07:52:58;2.92;;;1.10;;
26908;SDS011;14477;51.038;4.588;2024-02-15T07:55:24;2.60;;;0.87;;
26908;SDS011;14477;51.038;4.588;2024-02-15T07:57:50;1.52;;;0.80;;
26908;SDS011;14477;51.038;4.588;2024-02-15T08:00:17;1.05;;;0.75;;
26908;SDS011;14477;51.038;4.588;2024-02-15T08:02:44;1.80;;;0.70;;
26908;SDS011;14477;51.038;4.588;2024-02-15T08:05:11;1.98;;;0.80;;
26908;SDS011;14477;51.038;4.588;2024-02-15T08:07:38;2.17;;;0.80;;
26908;SDS011;14477;51.038;4.588;2024-02-15T08:10:07;1.05;;;0.82;;
26908;SDS011;14477;51.038;4.588;2024-02-15T08:12:38;1.70;;;0.90;;
26908;SDS011;14477;51.038;4.588;2024-02-15T08:15:17;1.83;;;0.70;;
26908;SDS011;14477;51.038;4.588;2024-02-15T08:17:44;1.52;;;0.90;;
26908;SDS011;14477;51.038;4.588;2024-02-15T08:20:14;0.98;;;0.77;;
26908;SDS011;14477;51.038;4.588;2024-02-15T08:22:40;2.70;;;0.90;;
26908;SDS011;14477;51.038;4.588;2024-02-15T08:25:13;1.00;;;0.60;;
26908;SDS011;14477;51.038;4.588;2024-02-15T08:27:41;1.58;;;0.80;;
26908;SDS011;14477;51.038;4.588;2024-02-15T08:30:12;2.40;;;0.90;;
26908;SDS011;14477;51.038;4.588;2024-02-15T08:32:42;1.15;;;0.70;;
26908;SDS011;14477;51.038;4.588;2024-02-15T08:35:10;0.70;;;0.68;;
26908;SDS011;14477;51.038;4.588;2024-02-15T08:37:38;1.10;;;0.67;;
26908;SDS011;14477;51.038;4.588;2024-02-15T08:40:08;1.48;;;0.77;;
26908;SDS011;14477;51.038;4.588;2024-02-15T08:42:42;1.92;;;0.90;;
26908;SDS011;14477;51.038;4.588;2024-02-15T08:45:08;1.80;;;0.80;;
26908;SDS011;14477;51.038;4.588;2024-02-15T08:47:41;1.40;;;0.95;;
26908;SDS011;14477;51.038;4.588;2024-02-15T08:50:09;1.07;;;0.77;;
26908;SDS011;14477;51.038;4.588;2024-02-15T08:52:38;1.85;;;0.85;;
26908;SDS011;14477;51.038;4.588;2024-02-15T08:55:05;1.17;;;0.75;;
26908;SDS011;14477;51.038;4.588;2024-02-15T08:57:32;2.45;;;0.70;;
26908;SDS011;14477;51.038;4.588;2024-02-15T08:59:58;2.33;;;0.80;;
26908;SDS011;14477;51.038;4.588;2024-02-15T09:02:24;1.63;;;0.80;;
26908;SDS011;14477;51.038;4.588;2024-02-15T09:04:50;1.33;;;0.60;;
26908;SDS011;14477;51.038;4.588;2024-02-15T09:07:16;2.10;;;0.90;;
26908;SDS011;14477;51.038;4.588;2024-02-15T09:09:41;1.45;;;0.70;;
26908;SDS011;14477;51.038;4.588;2024-02-15T09:12:07;1.23;;;0.80;;
26908;SDS011;14477;51.038;4.588;2024-02-15T09:14:33;0.90;;;0.70;;
26908;SDS011;14477;51.038;4.588;2024-02-15T09:17:00;1.85;;;0.60;;
26908;SDS011;14477;51.038;4.588;2024-02-15T09:19:25;1.45;;;0.80;;
26908;SDS011;14477;51.038;4.588;2024-02-15T09:21:51;1.30;;;0.70;;
26908;SDS011;14477;51.038;4.588;2024-02-15T09:24:19;1.33;;;0.60;;
26908;SDS011;14477;51.038;4.588;2024-02-15T09:26:44;1.02;;;0.75;;
26908;SDS011;14477;51.038;4.588;2024-02-15T09:29:10;1.70;;;0.80;;
26908;SDS011;14477;51.038;4.588;2024-02-15T09:31:37;1.50;;;0.70;;
26908;SDS011;14477;51.038;4.588;2024-02-15T09:34:05;2.33;;;0.68;;
26908;SDS011;14477;51.038;4.588;2024-02-15T09:36:35;1.67;;;1.00;;
26908;SDS011;14477;51.038;4.588;2024-02-15T09:39:03;1.13;;;0.70;;
26908;SDS011;14477;51.038;4.588;2024-02-15T09:41:29;1.55;;;0.70;;
26908;SDS011;14477;51.038;4.588;2024-02-15T09:43:55;1.65;;;0.77;;
26908;SDS011;14477;51.038;4.588;2024-02-15T09:46:22;1.50;;;0.80;;
26908;SDS011;14477;51.038;4.588;2024-02-15T09:48:49;1.30;;;0.70;;
26908;SDS011;14477;51.038;4.588;2024-02-15T09:51:17;1.65;;;0.70;;
26908;SDS011;14477;51.038;4.588;2024-02-15T09:53:45;1.30;;;0.70;;
26908;SDS011;14477;51.038;4.588;2024-02-15T09:56:12;1.15;;;0.70;;
26908;SDS011;14477;51.038;4.588;2024-02-15T09:58:40;1.00;;;0.63;;
26908;SDS011;14477;51.038;4.588;2024-02-15T10:01:06;2.30;;;0.80;;
26908;SDS011;14477;51.038;4.588;2024-02-15T10:03:38;1.33;;;0.70;;
26908;SDS011;14477;51.038;4.588;2024-02-15T10:06:07;1.40;;;0.73;;
26908;SDS011;14477;51.038;4.588;2024-02-15T10:08:33;2.40;;;0.90;;
26908;SDS011;14477;51.038;4.588;2024-02-15T10:11:08;1.10;;;0.80;;
26908;SDS011;14477;51.038;4.588;2024-02-15T10:13:34;1.52;;;0.80;;
26908;SDS011;14477;51.038;4.588;2024-02-15T10:16:14;1.52;;;0.90;;
26908;SDS011;14477;51.038;4.588;2024-02-15T10:18:40;1.40;;;0.70;;
26908;SDS011;14477;51.038;4.588;2024-02-15T10:21:06;1.50;;;0.90;;
26908;SDS011;14477;51.038;4.588;2024-02-15T10:23:32;1.57;;;0.70;;
26908;SDS011;14477;51.038;4.588;2024-02-15T10:25:57;0.98;;;0.80;;
26908;SDS011;14477;51.038;4.588;2024-02-15T10:28:23;1.30;;;0.90;;
26908;SDS011;14477;51.038;4.588;2024-02-15T10:30:49;1.25;;;0.80;;
26908;SDS011;14477;51.038;4.588;2024-02-15T10:33:19;4.03;;;0.80;;
26908;SDS011;14477;51.038;4.588;2024-02-15T10:35:47;1.83;;;0.90;;
26908;SDS011;14477;51.038;4.588;2024-02-15T10:38:13;1.70;;;0.90;;
26908;SDS011;14477;51.038;4.588;2024-02-15T10:40:40;1.48;;;0.85;;
26908;SDS011;14477;51.038;4.588;2024-02-15T10:43:07;2.20;;;1.10;;
26908;SDS011;14477;51.038;4.588;2024-02-15T10:45:38;1.13;;;0.98;;
26908;SDS011;14477;51.038;4.588;2024-02-15T10:48:08;4.63;;;1.00;;
26908;SDS011;14477;51.038;4.588;2024-02-15T10:50:35;1.10;;;0.75;;
26908;SDS011;14477;51.038;4.588;2024-02-15T10:53:04;1.67;;;0.90;;
26908;SDS011;14477;51.038;4.588;2024-02-15T10:55:40;3.00;;;0.90;;
26908;SDS011;14477;51.038;4.588;2024-02-15T10:58:25;1.38;;;0.85;;
26908;SDS011;14477;51.038;4.588;2024-02-15T11:00:56;1.07;;;0.80;;
26908;SDS011;14477;51.038;4.588;2024-02-15T11:03:30;1.17;;;0.80;;
26908;SDS011;14477;51.038;4.588;2024-02-15T11:06:05;1.55;;;0.80;;
26908;SDS011;14477;51.038;4.588;2024-02-15T11:08:34;3.45;;;1.05;;
26908;SDS011;14477;51.038;4.588;2024-02-15T11:11:01;2.10;;;0.85;;
26908;SDS011;14477;51.038;4.588;2024-02-15T11:13:29;1.73;;;1.00;;
26908;SDS011;14477;51.038;4.588;2024-02-15T11:15:55;2.85;;;1.20;;
26908;SDS011;14477;51.038;4.588;2024-02-15T11:21:16;2.37;;;0.93;;
26908;SDS011;14477;51.038;4.588;2024-02-15T11:23:43;2.60;;;1.17;;
26908;SDS011;14477;51.038;4.588;2024-02-15T11:26:42;1.80;;;1.02;;
26908;SDS011;14477;51.038;4.588;2024-02-15T11:35:11;2.33;;;1.00;;
26908;SDS011;14477;51.038;4.588;2024-02-15T11:40:15;1.90;;;1.02;;
26908;SDS011;14477;51.038;4.588;2024-02-15T11:42:42;2.00;;;1.10;;
26908;SDS011;14477;51.038;4.588;2024-02-15T11:45:08;2.08;;;1.30;;
26908;SDS011;14477;51.038;4.588;2024-02-15T11:47:36;1.33;;;0.90;;
26908;SDS011;14477;51.038;4.588;2024-02-15T11:50:14;1.90;;;1.10;;
26908;SDS011;14477;51.038;4.588;2024-02-15T11:52:43;2.13;;;1.30;;
26908;SDS011;14477;51.038;4.588;2024-02-15T11:55:11;2.83;;;1.25;;
26908;SDS011;14477;51.038;4.588;2024-02-15T11:57:40;2.20;;;1.20;;
26908;SDS011;14477;51.038;4.588;2024-02-15T12:00:34;1.97;;;1.10;;
26908;SDS011;14477;51.038;4.588;2024-02-15T12:03:19;1.45;;;0.90;;
26908;SDS011;14477;51.038;4.588;2024-02-15T12:06:04;2.05;;;0.90;;
26908;SDS011;14477;51.038;4.588;2024-02-15T12:08:49;1.40;;;0.80;;
26908;SDS011;14477;51.038;4.588;2024-02-15T12:11:35;1.65;;;0.90;;
26908;SDS011;14477;51.038;4.588;2024-02-15T12:14:20;1.73;;;0.97;;
26908;SDS011;14477;51.038;4.588;2024-02-15T12:17:05;1.88;;;0.95;;
26908;SDS011;14477;51.038;4.588;2024-02-15T12:19:50;2.70;;;1.00;;
26908;SDS011;14477;51.038;4.588;2024-02-15T12:22:26;1.50;;;0.90;;
26908;SDS011;14477;51.038;4.588;2024-02-15T12:24:56;1.85;;;1.00;;
26908;SDS011;14477;51.038;4.588;2024-02-15T12:27:23;2.23;;;1.00;;
26908;SDS011;14477;51.038;4.588;2024-02-15T12:29:55;1.67;;;0.90;;
26908;SDS011;14477;51.038;4.588;2024-02-15T12:32:23;1.67;;;1.00;;
26908;SDS011;14477;51.038;4.588;2024-02-15T12:34:52;1.67;;;0.80;;
26908;SDS011;14477;51.038;4.588;2024-02-15T12:37:34;1.40;;;0.73;;
26908;SDS011;14477;51.038;4.588;2024-02-15T12:40:09;1.87;;;0.80;;
26908;SDS011;14477;51.038;4.588;2024-02-15T12:42:45;1.45;;;1.10;;
26908;SDS011;14477;51.038;4.588;2024-02-15T12:45:17;1.10;;;0.70;;
26908;SDS011;14477;51.038;4.588;2024-02-15T12:47:51;1.80;;;0.80;;
26908;SDS011;14477;51.038;4.588;2024-02-15T12:50:18;1.50;;;0.70;;
26908;SDS011;14477;51.038;4.588;2024-02-15T12:52:47;1.25;;;0.70;;
26908;SDS011;14477;51.038;4.588;2024-02-15T12:57:42;1.52;;;0.80;;
26908;SDS011;14477;51.038;4.588;2024-02-15T13:00:14;1.53;;;0.60;;
26908;SDS011;14477;51.038;4.588;2024-02-15T13:02:46;1.15;;;0.73;;
26908;SDS011;14477;51.038;4.588;2024-02-15T13:05:14;1.48;;;0.98;;
26908;SDS011;14477;51.038;4.588;2024-02-15T13:07:43;1.10;;;0.70;;
26908;SDS011;14477;51.038;4.588;2024-02-15T13:10:12;2.60;;;0.90;;
26908;SDS011;14477;51.038;4.588;2024-02-15T13:12:40;0.80;;;0.70;;
26908;SDS011;14477;51.038;4.588;2024-02-15T13:15:13;2.03;;;1.02;;
26908;SDS011;14477;51.038;4.588;2024-02-15T13:17:43;1.27;;;0.77;;
26908;SDS011;14477;51.038;4.588;2024-02-15T13:20:14;1.02;;;0.70;;
26908;SDS011;14477;51.038;4.588;2024-02-15T13:22:41;1.10;;;0.82;;
26908;SDS011;14477;51.038;4.588;2024-02-15T13:25:09;1.47;;;0.80;;
26908;SDS011;14477;51.038;4.588;2024-02-15T13:27:35;2.08;;;0.90;;
26908;SDS011;14477;51.038;4.588;2024-02-15T13:30:06;1.10;;;0.75;;
26908;SDS011;14477;51.038;4.588;2024-02-15T13:32:36;1.52;;;0.90;;
26908;SDS011;14477;51.038;4.588;2024-02-15T13:35:06;1.40;;;0.70;;
26908;SDS011;14477;51.038;4.588;2024-02-15T13:40:11;1.02;;;0.80;;
26908;SDS011;14477;51.038;4.588;2024-02-15T13:42:43;2.03;;;0.70;;
26908;SDS011;14477;51.038;4.588;2024-02-15T13:45:15;1.63;;;0.80;;
26908;SDS011;14477;51.038;4.588;2024-02-15T13:47:43;1.10;;;0.85;;
26908;SDS011;14477;51.038;4.588;2024-02-15T13:50:11;2.73;;;0.80;;
26908;SDS011;14477;51.038;4.588;2024-02-15T13:52:39;1.40;;;0.70;;
26908;SDS011;14477;51.038;4.588;2024-02-15T13:55:15;0.82;;;0.60;;
26908;SDS011;14477;51.038;4.588;2024-02-15T13:57:43;1.45;;;0.70;;
26908;SDS011;14477;51.038;4.588;2024-02-15T14:00:12;1.10;;;0.68;;
26908;SDS011;14477;51.038;4.588;2024-02-15T14:02:47;1.83;;;0.70;;
26908;SDS011;14477;51.038;4.588;2024-02-15T14:05:20;0.93;;;0.70;;
26908;SDS011;14477;51.038;4.588;2024-02-15T14:07:54;0.50;;;0.50;;
26908;SDS011;14477;51.038;4.588;2024-02-15T14:10:22;0.52;;;0.52;;
26908;SDS011;14477;51.038;4.588;2024-02-15T14:12:49;1.10;;;0.60;;
26908;SDS011;14477;51.038;4.588;2024-02-15T14:15:18;1.03;;;0.63;;
26908;SDS011;14477;51.038;4.588;2024-02-15T14:17:47;1.30;;;0.80;;
26908;SDS011;14477;51.038;4.588;2024-02-15T14:20:13;0.60;;;0.60;;
26908;SDS011;14477;51.038;4.588;2024-02-15T14:22:48;0.98;;;0.70;;
26908;SDS011;14477;51.038;4.588;2024-02-15T14:25:20;1.17;;;0.80;;
26908;SDS011;14477;51.038;4.588;2024-02-15T14:27:46;1.10;;;0.70;;
26908;SDS011;14477;51.038;4.588;2024-02-15T14:30:15;1.67;;;0.80;;
26908;SDS011;14477;51.038;4.588;2024-02-15T14:32:59;0.75;;;0.70;;
26908;SDS011;14477;51.038;4.588;2024-02-15T14:35:26;1.48;;;0.65;;
26908;SDS011;14477;51.038;4.588;2024-02-15T14:37:53;1.08;;;0.60;;
26908;SDS011;14477;51.038;4.588;2024-02-15T14:40:21;1.20;;;0.60;;
26908;SDS011;14477;51.038;4.588;2024-02-15T14:42:46;1.63;;;1.08;;
26908;SDS011;14477;51.038;4.588;2024-02-15T14:45:12;0.97;;;0.70;;
26908;SDS011;14477;51.038;4.588;2024-02-15T14:47:38;0.93;;;0.70;;
26908;SDS011;14477;51.038;4.588;2024-02-15T14:50:04;1.00;;;0.80;;
26908;SDS011;14477;51.038;4.588;2024-02-15T14:52:38;0.73;;;0.70;;
26908;SDS011;14477;51.038;4.588;2024-02-15T14:55:04;0.93;;;0.70;;
26908;SDS011;14477;51.038;4.588;2024-02-15T14:57:33;1.10;;;0.70;;
26908;SDS011;14477;51.038;4.588;2024-02-15T15:00:00;0.68;;;0.60;;
26908;SDS011;14477;51.038;4.588;2024-02-15T15:02:26;1.20;;;0.60;;
26908;SDS011;14477;51.038;4.588;2024-02-15T15:04:51;0.77;;;0.57;;
26908;SDS011;14477;51.038;4.588;2024-02-15T15:07:36;0.90;;;0.60;;
26908;SDS011;14477;51.038;4.588;2024-02-15T15:10:20;1.42;;;0.60;;
26908;SDS011;14477;51.038;4.588;2024-02-15T15:13:04;1.08;;;0.60;;